createdAt,value
2017-11-22T00:00:35.031Z,4.47
2017-11-22T00:03:05.571Z,4.40
2017-11-22T00:05:38.227Z,5.20
2017-11-22T00:08:08.346Z,6.40
2017-11-22T00:10:38.285Z,5.40
2017-11-22T00:13:08.323Z,6.37
2017-11-22T00:15:38.230Z,8.20
2017-11-22T00:18:08.177Z,7.20
2017-11-22T00:20:38.236Z,10.10
2017-11-22T00:23:08.109Z,10.77
2017-11-22T00:25:38.034Z,9.23
2017-11-22T00:28:08.648Z,13.10
2017-11-22T00:30:38.644Z,10.37
2017-11-22T00:33:08.657Z,19.23
2017-11-22T00:35:38.526Z,35.57
2017-11-22T00:38:08.701Z,61.20
2017-11-22T00:40:38.586Z,84.97
2017-11-22T00:43:08.496Z,70.53
2017-11-22T00:45:38.363Z,73.03
2017-11-22T00:48:08.303Z,87.37
2017-11-22T00:50:38.175Z,98.70
2017-11-22T00:53:08.087Z,110.87
2017-11-22T00:55:38.075Z,132.00
2017-11-22T00:58:07.976Z,93.20
2017-11-22T01:00:37.881Z,119.97
2017-11-22T01:03:07.808Z,122.00
2017-11-22T01:05:37.690Z,98.83
2017-11-22T01:08:07.603Z,98.67
2017-11-22T01:10:37.523Z,111.47
2017-11-22T01:13:07.527Z,87.93
2017-11-22T01:15:37.388Z,83.27
2017-11-22T01:18:07.266Z,81.93
2017-11-22T01:20:37.172Z,77.37
2017-11-22T01:23:07.080Z,82.27
2017-11-22T01:25:57.594Z,72.63
2017-11-22T01:54:07.901Z,53.57
2017-11-22T01:56:37.783Z,67.30
2017-11-22T01:59:07.676Z,57.83
2017-11-22T02:01:37.563Z,61.00
2017-11-22T02:04:07.456Z,60.33
2017-11-22T02:06:37.366Z,61.27
2017-11-22T02:09:07.241Z,50.53
2017-11-22T02:11:37.338Z,50.93
2017-11-22T02:14:07.217Z,46.07
2017-11-22T02:16:37.112Z,43.80
2017-11-22T02:19:06.987Z,54.60
2017-11-22T02:21:36.875Z,44.97
2017-11-22T02:24:06.764Z,42.63
2017-11-22T02:26:36.669Z,43.10
2017-11-22T02:29:06.544Z,37.60
2017-11-22T02:31:36.444Z,35.70
2017-11-22T02:34:06.332Z,36.03
2017-11-22T02:36:36.211Z,39.20
2017-11-22T02:39:06.087Z,43.13
2017-11-22T02:41:36.001Z,37.23
2017-11-22T02:44:05.916Z,32.10
2017-11-22T02:46:35.793Z,32.83
2017-11-22T02:49:05.748Z,35.57
2017-11-22T02:51:35.632Z,26.03
2017-11-22T02:54:05.518Z,32.03
2017-11-22T02:56:35.388Z,33.80
2017-11-22T02:59:05.287Z,28.30
2017-11-22T03:01:35.202Z,25.77
2017-11-22T03:04:05.082Z,26.43
2017-11-22T03:06:34.991Z,25.07
2017-11-22T03:09:04.910Z,29.20
2017-11-22T03:11:34.807Z,32.50
2017-11-22T03:14:04.716Z,27.97
2017-11-22T03:16:34.626Z,26.20
2017-11-22T03:19:04.513Z,25.50
2017-11-22T03:21:34.412Z,31.10
2017-11-22T03:24:04.351Z,28.90
2017-11-22T03:26:34.217Z,25.07
2017-11-22T03:29:04.114Z,27.13
2017-11-22T03:31:33.998Z,25.30
2017-11-22T03:34:03.921Z,27.37
2017-11-22T03:36:33.789Z,23.73
2017-11-22T03:39:03.660Z,25.00
2017-11-22T03:41:34.942Z,30.03
2017-11-22T03:44:04.870Z,28.17
2017-11-22T03:46:34.748Z,32.43
2017-11-22T03:49:06.633Z,29.17
2017-11-22T03:51:42.034Z,27.90
2017-11-22T03:54:14.856Z,29.67
2017-11-22T03:56:44.918Z,27.60
2017-11-22T03:59:14.889Z,27.50
2017-11-22T04:01:44.796Z,27.87
2017-11-22T04:04:20.486Z,31.37
2017-11-22T04:06:50.392Z,27.17
2017-11-22T04:09:20.351Z,29.27
2017-11-22T04:11:50.237Z,30.43
2017-11-22T04:14:20.236Z,29.13
2017-11-22T04:16:50.179Z,34.67
2017-11-22T04:22:20.398Z,34.10
2017-11-22T04:24:50.398Z,32.77
2017-11-22T04:27:20.383Z,31.70
2017-11-22T04:29:50.289Z,30.50
2017-11-22T04:32:20.171Z,34.07
2017-11-22T04:34:50.085Z,26.33
2017-11-22T04:37:20.072Z,34.70
2017-11-22T04:39:49.967Z,31.93
2017-11-22T04:42:19.831Z,29.90
2017-11-22T04:44:49.742Z,31.80
2017-11-22T04:47:19.646Z,33.40
2017-11-22T04:49:49.567Z,31.60
2017-11-22T04:52:19.448Z,35.17
2017-11-22T04:54:49.325Z,35.97
2017-11-22T04:57:19.220Z,34.60
2017-11-22T04:59:49.091Z,39.90
2017-11-22T05:02:19.006Z,38.73
2017-11-22T05:04:48.898Z,43.17
2017-11-22T05:07:18.822Z,42.33
2017-11-22T05:09:49.455Z,50.70
2017-11-22T05:12:19.381Z,42.87
2017-11-22T05:14:49.270Z,42.27
2017-11-22T05:17:19.192Z,45.60
2017-11-22T05:19:49.074Z,49.80
2017-11-22T05:22:19.011Z,46.07
2017-11-22T05:24:48.920Z,43.27
2017-11-22T05:27:18.818Z,51.70
2017-11-22T05:29:48.697Z,46.83
2017-11-22T05:32:18.690Z,43.70
2017-11-22T05:34:48.583Z,42.00
2017-11-22T05:37:18.473Z,49.03
2017-11-22T05:39:48.408Z,47.23
2017-11-22T05:42:18.285Z,42.00
2017-11-22T05:44:48.173Z,54.10
2017-11-22T05:47:18.055Z,41.63
2017-11-22T05:49:47.950Z,40.27
2017-11-22T05:52:17.870Z,38.60
2017-11-22T05:54:47.767Z,41.50
2017-11-22T05:57:17.651Z,44.40
2017-11-22T05:59:47.585Z,38.00
2017-11-22T06:02:17.471Z,35.70
2017-11-22T06:04:47.454Z,39.13
2017-11-22T06:07:17.352Z,42.40
2017-11-22T06:09:47.248Z,37.83
2017-11-22T06:12:17.111Z,41.73
2017-11-22T06:14:47.002Z,33.97
2017-11-22T06:17:16.898Z,30.97
2017-11-22T06:19:46.812Z,37.80
2017-11-22T06:22:16.779Z,33.07
2017-11-22T06:24:46.657Z,32.60
2017-11-22T06:27:16.538Z,38.00
2017-11-22T06:29:57.230Z,36.60
2017-11-22T06:32:27.158Z,31.17
2017-11-22T06:34:57.031Z,29.47
2017-11-22T06:37:27.023Z,30.33
2017-11-22T06:39:56.975Z,28.63
2017-11-22T06:42:26.903Z,28.00
2017-11-22T06:44:56.791Z,26.57
2017-11-22T06:47:26.764Z,24.63
2017-11-22T06:49:56.693Z,27.17
2017-11-22T06:52:26.583Z,23.70
2017-11-22T06:54:56.474Z,27.63
2017-11-22T06:57:26.392Z,27.73
2017-11-22T06:59:56.345Z,32.00
2017-11-22T07:02:31.786Z,30.40
2017-11-22T07:05:01.824Z,28.13
2017-11-22T07:07:31.752Z,25.10
2017-11-22T07:10:01.653Z,26.20
2017-11-22T07:12:31.589Z,25.83
2017-11-22T07:15:02.311Z,26.30
2017-11-22T07:17:33.926Z,24.40
2017-11-22T07:20:03.838Z,28.80
2017-11-22T07:22:33.782Z,27.73
2017-11-22T07:25:03.690Z,23.23
2017-11-22T07:27:33.569Z,23.73
2017-11-22T07:30:03.456Z,28.27
2017-11-22T07:32:35.159Z,26.07
2017-11-22T07:35:05.065Z,24.93
2017-11-22T07:37:36.753Z,24.90
2017-11-22T07:40:07.430Z,23.27
2017-11-22T07:42:37.325Z,24.13
2017-11-22T07:45:07.319Z,27.13
2017-11-22T07:47:37.220Z,26.33
2017-11-22T07:50:07.115Z,27.40
2017-11-22T07:52:37.010Z,28.27
2017-11-22T07:55:06.902Z,26.23
2017-11-22T07:57:38.623Z,33.37
2017-11-22T08:00:08.530Z,28.40
2017-11-22T08:05:38.487Z,28.80
2017-11-22T08:08:08.432Z,32.07
2017-11-22T08:10:38.322Z,27.23
2017-11-22T08:13:08.230Z,38.87
2017-11-22T08:15:38.112Z,30.10
2017-11-22T08:18:08.089Z,30.07
2017-11-22T08:20:38.001Z,31.33
2017-11-22T08:23:07.934Z,35.00
2017-11-22T08:25:37.820Z,30.27
2017-11-22T08:28:07.751Z,30.00
2017-11-22T08:30:37.650Z,27.90
2017-11-22T08:33:07.612Z,36.20
2017-11-22T08:35:37.499Z,30.97
2017-11-22T08:38:07.513Z,41.27
2017-11-22T08:40:37.393Z,30.53
2017-11-22T08:43:13.143Z,29.73
2017-11-22T08:45:43.050Z,30.07
2017-11-22T08:48:12.931Z,31.60
2017-11-22T08:50:42.824Z,28.40
2017-11-22T08:53:12.691Z,30.80
2017-11-22T08:55:48.780Z,32.87
2017-11-22T08:58:19.777Z,33.50
2017-11-22T09:00:49.717Z,37.90
2017-11-22T09:03:24.439Z,30.70
2017-11-22T09:06:00.023Z,32.20
2017-11-22T09:08:29.906Z,30.37
2017-11-22T09:10:59.804Z,34.23
2017-11-22T09:13:29.753Z,32.23
2017-11-22T09:15:59.678Z,32.60
2017-11-22T09:18:35.216Z,29.90
2017-11-22T09:21:05.192Z,28.03
2017-11-22T09:23:35.092Z,35.33
2017-11-22T09:26:05.017Z,29.00
2017-11-22T09:28:34.893Z,29.53
2017-11-22T09:31:10.534Z,31.83
2017-11-22T09:33:40.419Z,29.67
2017-11-22T09:36:10.349Z,30.00
2017-11-22T09:38:40.289Z,33.03
2017-11-22T09:41:10.278Z,29.17
2017-11-22T09:43:40.166Z,30.33
2017-11-22T09:46:10.105Z,28.57
2017-11-22T09:48:40.021Z,28.90
2017-11-22T09:51:09.910Z,28.47
2017-11-22T09:53:39.803Z,30.33
2017-11-22T09:56:09.722Z,33.03
2017-11-22T09:58:41.217Z,31.53
2017-11-22T10:01:11.324Z,37.87
2017-11-22T10:03:41.221Z,31.60
2017-11-22T10:06:11.151Z,28.70
2017-11-22T10:08:41.100Z,30.83
2017-11-22T10:11:11.089Z,33.47
2017-11-22T10:13:40.986Z,32.33
2017-11-22T10:16:10.913Z,32.63
2017-11-22T10:18:40.863Z,31.10
2017-11-22T10:21:10.791Z,32.33
2017-11-22T10:23:40.703Z,31.73
2017-11-22T10:26:10.630Z,25.83
2017-11-22T10:28:40.553Z,24.40
2017-11-22T10:31:10.511Z,27.03
2017-11-22T10:33:40.442Z,25.43
2017-11-22T10:36:10.376Z,27.03
2017-11-22T10:38:40.289Z,26.57
2017-11-22T10:41:10.383Z,23.80
2017-11-22T10:43:40.340Z,27.37
2017-11-22T10:46:10.306Z,23.10
2017-11-22T10:48:40.326Z,23.37
2017-11-22T10:51:10.264Z,22.47
2017-11-22T10:53:40.213Z,24.40
2017-11-22T10:56:10.097Z,22.50
2017-11-22T10:58:40.030Z,22.23
2017-11-22T11:01:09.935Z,24.13
2017-11-22T11:03:39.879Z,20.33
2017-11-22T11:06:09.792Z,20.90
2017-11-22T11:08:39.756Z,18.93
2017-11-22T11:11:09.675Z,22.13
2017-11-22T11:13:39.646Z,18.03
2017-11-22T11:16:09.564Z,17.70
2017-11-22T11:18:39.778Z,18.10
2017-11-22T11:21:09.793Z,18.90
2017-11-22T11:23:39.750Z,21.33
2017-11-22T11:26:09.659Z,23.77
2017-11-22T11:28:39.611Z,18.40
2017-11-22T11:31:09.527Z,18.93
2017-11-22T11:33:39.677Z,20.83
2017-11-22T11:36:21.259Z,25.23
2017-11-22T11:38:51.277Z,16.47
2017-11-22T11:41:21.201Z,19.97
2017-11-22T11:43:51.158Z,19.23
2017-11-22T11:46:21.160Z,18.40
2017-11-22T11:48:51.068Z,22.47
2017-11-22T11:51:20.986Z,18.63
2017-11-22T11:53:50.979Z,23.47
2017-11-22T11:56:20.907Z,25.97
2017-11-22T11:58:50.822Z,21.33
2017-11-22T12:01:20.748Z,22.40
2017-11-22T12:03:50.736Z,24.97
2017-11-22T12:06:20.774Z,27.07
2017-11-22T12:08:50.675Z,27.10
2017-11-22T12:11:20.601Z,27.50
2017-11-22T12:13:50.523Z,29.17
2017-11-22T12:16:20.437Z,26.57
2017-11-22T12:18:50.351Z,27.70
2017-11-22T12:21:26.148Z,33.60
2017-11-22T12:23:56.087Z,34.93
2017-11-22T12:26:25.980Z,29.77
2017-11-22T12:28:55.919Z,30.27
2017-11-22T12:31:25.841Z,31.23
2017-11-22T12:33:55.792Z,38.60
2017-11-22T12:36:25.694Z,31.10
2017-11-22T12:38:55.688Z,28.50
2017-11-22T12:41:25.612Z,32.77
2017-11-22T12:43:55.536Z,31.73
2017-11-22T12:46:25.553Z,38.30
2017-11-22T12:48:55.490Z,32.13
2017-11-22T12:51:25.701Z,37.63
2017-11-22T12:53:55.614Z,42.70
2017-11-22T12:56:25.679Z,33.20
2017-11-22T12:58:56.552Z,30.27
2017-11-22T13:01:26.515Z,37.77
2017-11-22T13:03:56.597Z,33.00
2017-11-22T13:06:26.529Z,31.97
2017-11-22T13:08:56.443Z,36.50
2017-11-22T13:11:41.101Z,32.60
2017-11-22T13:14:11.072Z,32.43
2017-11-22T13:16:41.161Z,31.00
2017-11-22T13:19:11.091Z,29.63
2017-11-22T13:21:41.112Z,34.77
2017-11-22T13:24:11.043Z,35.37
2017-11-22T13:26:41.779Z,29.13
2017-11-22T13:29:11.677Z,36.33
2017-11-22T13:31:41.652Z,30.77
2017-11-22T13:34:11.586Z,35.93
2017-11-22T13:36:41.516Z,35.87
2017-11-22T13:39:11.438Z,31.90
2017-11-22T13:41:46.304Z,30.70
2017-11-22T13:44:16.200Z,29.63
2017-11-22T13:46:46.094Z,33.43
2017-11-22T13:49:16.023Z,33.83
2017-11-22T13:51:46.017Z,31.60
2017-11-22T13:54:15.981Z,28.10
2017-11-22T13:56:45.898Z,30.30
2017-11-22T13:59:15.834Z,34.40
2017-11-22T14:01:45.781Z,33.03
2017-11-22T14:04:15.799Z,28.53
2017-11-22T14:06:45.735Z,35.70
2017-11-22T14:09:15.710Z,32.30
2017-11-22T14:11:45.658Z,27.00
2017-11-22T14:14:15.590Z,29.60
2017-11-22T14:16:45.512Z,26.07
2017-11-22T14:19:15.455Z,27.13
2017-11-22T14:21:45.379Z,25.43
2017-11-22T14:24:15.288Z,25.30
2017-11-22T14:26:45.208Z,24.37
2017-11-22T14:29:15.249Z,24.60
2017-11-22T14:31:45.189Z,24.43
2017-11-22T14:34:15.092Z,28.20
2017-11-22T14:36:45.082Z,24.70
2017-11-22T14:39:15.033Z,29.43
2017-11-22T14:41:45.026Z,28.07
2017-11-22T14:44:14.937Z,28.43
2017-11-22T14:46:44.920Z,24.30
2017-11-22T14:49:14.865Z,21.53
2017-11-22T14:51:44.933Z,24.63
2017-11-22T14:54:14.867Z,24.27
2017-11-22T14:56:44.789Z,25.57
2017-11-22T14:59:14.735Z,29.37
2017-11-22T15:01:44.669Z,27.87
2017-11-22T15:04:14.563Z,22.10
2017-11-22T15:06:44.479Z,24.13
2017-11-22T15:09:14.403Z,28.53
2017-11-22T15:11:44.329Z,21.53
2017-11-22T15:14:14.356Z,23.33
2017-11-22T15:16:44.916Z,30.73
2017-11-22T15:19:14.940Z,25.27
2017-11-22T15:21:44.885Z,24.43
2017-11-22T15:24:14.824Z,26.30
2017-11-22T15:26:44.734Z,25.93
2017-11-22T15:29:14.686Z,25.87
2017-11-22T15:31:45.505Z,24.77
2017-11-22T15:34:15.448Z,23.73
2017-11-22T15:36:45.336Z,23.50
2017-11-22T15:39:15.288Z,21.53
2017-11-22T15:41:45.185Z,26.43
2017-11-22T15:44:15.109Z,24.30
2017-11-22T15:46:45.066Z,24.03
2017-11-22T15:49:15.067Z,22.50
2017-11-22T15:51:44.967Z,27.10
2017-11-22T15:54:14.897Z,26.37
2017-11-22T15:56:44.825Z,23.40
2017-11-22T15:59:14.837Z,22.00
2017-11-22T16:01:44.784Z,23.70
2017-11-22T16:04:14.723Z,21.90
2017-11-22T16:06:44.666Z,24.13
2017-11-22T16:09:14.607Z,22.37
2017-11-22T16:11:44.523Z,22.33
2017-11-22T16:14:14.563Z,31.73
2017-11-22T16:16:44.488Z,26.50
2017-11-22T16:19:14.498Z,22.13
2017-11-22T16:21:44.452Z,28.80
2017-11-22T16:24:14.486Z,23.63
2017-11-22T16:26:44.655Z,29.30
2017-11-22T16:29:14.706Z,26.83
2017-11-22T16:31:44.615Z,23.63
2017-11-22T16:34:14.531Z,32.43
2017-11-22T16:36:44.498Z,23.97
2017-11-22T16:39:14.571Z,30.93
2017-11-22T16:41:44.509Z,28.00
2017-11-22T16:44:14.413Z,29.23
2017-11-22T16:46:44.390Z,29.27
2017-11-22T16:49:14.339Z,26.53
2017-11-22T16:51:44.299Z,29.13
2017-11-22T16:54:14.207Z,28.27
2017-11-22T16:56:44.131Z,30.80
2017-11-22T16:59:14.127Z,29.40
2017-11-22T17:01:44.122Z,31.40
2017-11-22T17:04:14.026Z,30.80
2017-11-22T17:06:44.012Z,29.27
2017-11-22T17:09:13.969Z,32.13
2017-11-22T17:11:43.904Z,32.83
2017-11-22T17:14:13.830Z,30.20
2017-11-22T17:16:43.776Z,28.43
2017-11-22T17:19:13.731Z,30.23
2017-11-22T17:21:43.754Z,29.47
2017-11-22T17:24:13.786Z,31.40
2017-11-22T17:26:43.817Z,25.47
2017-11-22T17:29:13.751Z,27.40
2017-11-22T17:31:43.705Z,30.10
2017-11-22T17:34:13.632Z,28.60
2017-11-22T17:36:43.573Z,26.53
2017-11-22T17:39:13.518Z,27.37
2017-11-22T17:41:43.435Z,27.03
2017-11-22T17:44:13.508Z,24.83
2017-11-22T17:46:43.482Z,27.40
2017-11-22T17:49:13.519Z,28.43
2017-11-22T17:51:43.537Z,26.67
2017-11-22T17:54:13.476Z,26.27
2017-11-22T17:56:43.415Z,27.03
2017-11-22T17:59:15.183Z,30.13
2017-11-22T18:01:45.123Z,32.17
2017-11-22T18:04:15.069Z,33.70
2017-11-22T18:06:44.990Z,23.67
2017-11-22T18:09:14.926Z,27.00
2017-11-22T18:11:45.639Z,27.53
2017-11-22T18:14:15.582Z,26.17
2017-11-22T18:16:45.496Z,24.37
2017-11-22T18:19:15.501Z,30.43
2017-11-22T18:21:45.538Z,24.50
2017-11-22T18:24:15.473Z,24.40
2017-11-22T18:26:45.394Z,22.47
2017-11-22T18:29:15.442Z,22.03
2017-11-22T18:31:45.412Z,23.60
2017-11-22T18:34:15.365Z,25.40
2017-11-22T18:36:45.379Z,20.43
2017-11-22T18:39:15.313Z,23.10
2017-11-22T18:41:45.359Z,21.57
2017-11-22T18:44:16.125Z,22.33
2017-11-22T18:46:46.228Z,19.77
2017-11-22T18:49:17.011Z,23.60
2017-11-22T18:51:46.957Z,26.97
2017-11-22T18:54:16.875Z,19.13
2017-11-22T18:56:46.862Z,22.03
2017-11-22T18:59:16.810Z,18.77
2017-11-22T19:01:46.787Z,21.40
2017-11-22T19:04:16.725Z,19.50
2017-11-22T19:06:46.691Z,19.93
2017-11-22T19:09:16.616Z,19.70
2017-11-22T19:11:46.534Z,23.00
2017-11-22T19:14:16.452Z,23.07
2017-11-22T19:16:46.389Z,18.23
2017-11-22T19:19:17.235Z,20.23
2017-11-22T19:21:47.189Z,20.73
2017-11-22T19:24:17.164Z,22.67
2017-11-22T19:26:47.124Z,34.90
2017-11-22T19:29:25.909Z,29.73
2017-11-22T19:31:55.928Z,36.57
2017-11-22T19:34:25.906Z,20.37
2017-11-22T19:36:55.825Z,22.33
2017-11-22T19:39:25.866Z,22.77
2017-11-22T19:41:55.813Z,26.20
2017-11-22T19:44:25.801Z,22.23
2017-11-22T19:46:55.760Z,61.50
2017-11-22T19:49:25.767Z,28.33
2017-11-22T19:51:56.241Z,30.23
2017-11-22T19:54:26.679Z,22.20
2017-11-22T19:56:59.070Z,20.27
2017-11-22T19:59:29.855Z,21.90
2017-11-22T20:02:00.851Z,22.90
2017-11-22T20:04:31.561Z,23.63
2017-11-22T20:07:13.122Z,30.00
2017-11-22T20:09:43.767Z,26.70
2017-11-22T20:12:14.258Z,25.73
2017-11-22T20:14:45.157Z,23.07
2017-11-22T20:17:15.397Z,30.53
2017-11-22T20:32:45.440Z,29.73
2017-11-22T20:35:16.269Z,24.57
2017-11-22T20:37:46.244Z,25.33
2017-11-22T20:40:16.917Z,29.93
2017-11-22T20:42:47.025Z,31.43
2017-11-22T20:45:17.002Z,33.33
2017-11-22T20:47:46.951Z,24.40
2017-11-22T20:50:16.905Z,22.60
2017-11-22T20:52:46.999Z,24.03
2017-11-22T21:05:01.953Z,20.00
2017-11-22T21:07:31.950Z,19.17
2017-11-22T21:10:01.874Z,21.90
2017-11-22T21:12:31.815Z,22.13
2017-11-22T21:15:01.767Z,22.70
2017-11-22T21:17:31.681Z,19.33
2017-11-22T21:20:01.631Z,23.00
2017-11-22T21:22:31.533Z,20.80
2017-11-22T21:25:01.469Z,17.67
2017-11-22T21:27:31.381Z,16.27
2017-11-22T21:30:01.300Z,18.37
2017-11-22T21:32:31.250Z,17.20
2017-11-22T21:35:01.196Z,21.20
2017-11-22T21:37:31.144Z,19.10
2017-11-22T21:40:01.052Z,16.87
2017-11-22T21:42:31.045Z,16.50
2017-11-22T21:45:00.984Z,18.30
2017-11-22T21:47:30.932Z,16.83
2017-11-22T21:50:01.593Z,17.47
2017-11-22T21:52:31.653Z,25.77
2017-11-22T21:55:01.581Z,19.17
2017-11-22T21:57:31.653Z,14.63
2017-11-22T22:00:01.579Z,19.00
2017-11-22T22:02:31.479Z,22.80
2017-11-22T22:05:01.416Z,18.33
2017-11-22T22:07:31.323Z,16.10
2017-11-22T22:10:01.276Z,17.13
2017-11-22T22:12:31.163Z,23.30
2017-11-22T22:15:01.150Z,15.27
2017-11-22T22:17:31.081Z,13.27
2017-11-22T22:20:01.026Z,17.33
2017-11-22T22:22:30.930Z,14.30
2017-11-22T22:25:00.881Z,15.67
2017-11-22T22:27:30.807Z,20.27
2017-11-22T22:30:00.731Z,24.90
2017-11-22T22:32:30.634Z,14.27
2017-11-22T22:35:00.557Z,14.70
2017-11-22T22:37:30.486Z,15.63
2017-11-22T22:40:00.412Z,16.20
2017-11-22T22:42:30.340Z,12.87
2017-11-22T22:45:00.252Z,14.50
2017-11-22T22:47:30.268Z,16.67
2017-11-22T22:50:00.291Z,13.57
2017-11-22T22:52:30.228Z,13.80
2017-11-22T22:55:00.233Z,13.60
2017-11-22T22:57:30.158Z,12.20
2017-11-22T23:00:00.064Z,12.80
2017-11-22T23:02:29.998Z,12.40
2017-11-22T23:04:59.927Z,14.83
2017-11-22T23:07:29.894Z,13.57
2017-11-22T23:09:59.811Z,14.70
2017-11-22T23:12:29.750Z,15.20
2017-11-22T23:14:59.631Z,12.30
2017-11-22T23:17:29.555Z,14.90
2017-11-22T23:19:59.464Z,12.20
2017-11-22T23:22:29.391Z,14.70
2017-11-22T23:24:59.425Z,12.23
2017-11-22T23:27:29.339Z,14.63
2017-11-22T23:29:59.268Z,14.53
2017-11-22T23:32:29.176Z,14.53
2017-11-22T23:34:59.112Z,11.97
2017-11-22T23:37:29.032Z,12.37
2017-11-22T23:39:58.971Z,11.33
2017-11-22T23:42:29.519Z,13.30
2017-11-22T23:44:59.503Z,13.20
2017-11-22T23:47:29.424Z,13.30
2017-11-22T23:49:59.405Z,11.50
2017-11-22T23:52:29.324Z,11.90
2017-11-22T23:54:59.267Z,10.47
2017-11-22T23:57:29.186Z,15.53
2017-11-22T23:59:59.094Z,17.70
